sensor_id;sensor_type;location;lat;lon;timestamp;P1;durP1;ratioP1;P2;durP2;ratioP2
39256;SDS011;67272;48.066;11.038;2024-03-02T00:01:41;14.47;;;12.87;;
39256;SDS011;67272;48.066;11.038;2024-03-02T00:04:08;15.80;;;13.43;;
39256;SDS011;67272;48.066;11.038;2024-03-02T00:06:40;14.70;;;12.73;;
39256;SDS011;67272;48.066;11.038;2024-03-02T00:09:10;14.53;;;12.77;;
39256;SDS011;67272;48.066;11.038;2024-03-02T00:11:38;14.40;;;12.60;;
39256;SDS011;67272;48.066;11.038;2024-03-02T00:14:10;14.30;;;12.70;;
39256;SDS011;67272;48.066;11.038;2024-03-02T00:16:37;14.23;;;12.73;;
39256;SDS011;67272;48.066;11.038;2024-03-02T00:19:06;14.93;;;12.80;;
39256;SDS011;67272;48.066;11.038;2024-03-02T00:21:33;14.83;;;12.33;;
39256;SDS011;67272;48.066;11.038;2024-03-02T00:24:00;15.57;;;13.30;;
39256;SDS011;67272;48.066;11.038;2024-03-02T00:26:28;15.37;;;13.27;;
39256;SDS011;67272;48.066;11.038;2024-03-02T00:28:55;16.07;;;14.37;;
39256;SDS011;67272;48.066;11.038;2024-03-02T00:31:22;16.93;;;13.43;;
39256;SDS011;67272;48.066;11.038;2024-03-02T00:33:48;17.07;;;14.13;;
39256;SDS011;67272;48.066;11.038;2024-03-02T00:36:15;17.67;;;15.00;;
39256;SDS011;67272;48.066;11.038;2024-03-02T00:38:44;17.87;;;14.90;;
39256;SDS011;67272;48.066;11.038;2024-03-02T00:41:15;16.23;;;14.47;;
39256;SDS011;67272;48.066;11.038;2024-03-02T00:43:42;17.20;;;14.57;;
39256;SDS011;67272;48.066;11.038;2024-03-02T00:46:32;17.00;;;13.67;;
39256;SDS011;67272;48.066;11.038;2024-03-02T00:49:00;15.20;;;13.57;;
39256;SDS011;67272;48.066;11.038;2024-03-02T00:51:27;16.40;;;13.60;;
39256;SDS011;67272;48.066;11.038;2024-03-02T00:53:54;16.47;;;14.00;;
39256;SDS011;67272;48.066;11.038;2024-03-02T00:56:24;18.23;;;14.77;;
39256;SDS011;67272;48.066;11.038;2024-03-02T00:58:57;18.20;;;15.17;;
39256;SDS011;67272;48.066;11.038;2024-03-02T01:01:29;19.07;;;15.37;;
39256;SDS011;67272;48.066;11.038;2024-03-02T01:03:59;16.33;;;14.13;;
39256;SDS011;67272;48.066;11.038;2024-03-02T01:06:25;18.30;;;14.83;;
39256;SDS011;67272;48.066;11.038;2024-03-02T01:08:52;18.33;;;13.87;;
39256;SDS011;67272;48.066;11.038;2024-03-02T01:11:18;17.40;;;14.17;;
39256;SDS011;67272;48.066;11.038;2024-03-02T01:13:47;15.07;;;13.27;;
39256;SDS011;67272;48.066;11.038;2024-03-02T01:16:13;13.13;;;11.83;;
39256;SDS011;67272;48.066;11.038;2024-03-02T01:18:41;14.13;;;11.93;;
39256;SDS011;67272;48.066;11.038;2024-03-02T01:21:10;13.50;;;12.00;;
39256;SDS011;67272;48.066;11.038;2024-03-02T01:23:37;14.17;;;12.67;;
39256;SDS011;67272;48.066;11.038;2024-03-02T01:26:09;13.37;;;11.97;;
39256;SDS011;67272;48.066;11.038;2024-03-02T01:28:36;14.03;;;12.63;;
39256;SDS011;67272;48.066;11.038;2024-03-02T01:31:02;14.10;;;12.60;;
39256;SDS011;67272;48.066;11.038;2024-03-02T01:33:28;14.20;;;12.80;;
39256;SDS011;67272;48.066;11.038;2024-03-02T01:35:55;14.80;;;13.30;;
39256;SDS011;67272;48.066;11.038;2024-03-02T01:38:24;13.97;;;12.53;;
39256;SDS011;67272;48.066;11.038;2024-03-02T01:40:50;14.97;;;13.27;;
39256;SDS011;67272;48.066;11.038;2024-03-02T01:43:17;14.83;;;13.27;;
39256;SDS011;67272;48.066;11.038;2024-03-02T01:45:43;15.83;;;13.37;;
39256;SDS011;67272;48.066;11.038;2024-03-02T01:48:13;14.77;;;13.27;;
39256;SDS011;67272;48.066;11.038;2024-03-02T01:50:45;14.93;;;13.33;;
39256;SDS011;67272;48.066;11.038;2024-03-02T01:53:12;14.37;;;12.90;;
39256;SDS011;67272;48.066;11.038;2024-03-02T01:55:41;15.47;;;13.87;;
39256;SDS011;67272;48.066;11.038;2024-03-02T01:58:08;15.27;;;13.53;;
39256;SDS011;67272;48.066;11.038;2024-03-02T02:00:34;16.33;;;14.63;;
39256;SDS011;67272;48.066;11.038;2024-03-02T02:03:01;18.57;;;16.57;;
39256;SDS011;67272;48.066;11.038;2024-03-02T02:05:33;16.87;;;15.17;;
39256;SDS011;67272;48.066;11.038;2024-03-02T02:08:00;15.57;;;13.67;;
39256;SDS011;67272;48.066;11.038;2024-03-02T02:10:30;14.73;;;13.23;;
39256;SDS011;67272;48.066;11.038;2024-03-02T02:12:56;16.43;;;14.63;;
39256;SDS011;67272;48.066;11.038;2024-03-02T02:15:32;16.23;;;14.53;;
39256;SDS011;67272;48.066;11.038;2024-03-02T02:18:00;18.47;;;15.93;;
39256;SDS011;67272;48.066;11.038;2024-03-02T02:20:27;17.27;;;15.47;;
39256;SDS011;67272;48.066;11.038;2024-03-02T02:23:03;18.73;;;16.60;;
39256;SDS011;67272;48.066;11.038;2024-03-02T02:25:35;18.40;;;16.50;;
39256;SDS011;67272;48.066;11.038;2024-03-02T02:28:01;18.27;;;16.33;;
39256;SDS011;67272;48.066;11.038;2024-03-02T02:30:28;18.17;;;16.23;;
39256;SDS011;67272;48.066;11.038;2024-03-02T02:32:55;19.90;;;16.43;;
39256;SDS011;67272;48.066;11.038;2024-03-02T02:35:21;18.87;;;16.87;;
39256;SDS011;67272;48.066;11.038;2024-03-02T02:37:53;18.33;;;16.37;;
39256;SDS011;67272;48.066;11.038;2024-03-02T02:40:29;19.67;;;17.43;;
39256;SDS011;67272;48.066;11.038;2024-03-02T02:42:58;19.83;;;17.20;;
39256;SDS011;67272;48.066;11.038;2024-03-02T02:45:28;18.43;;;16.43;;
39256;SDS011;67272;48.066;11.038;2024-03-02T02:47:54;20.37;;;17.97;;
39256;SDS011;67272;48.066;11.038;2024-03-02T02:50:23;19.50;;;17.17;;
39256;SDS011;67272;48.066;11.038;2024-03-02T02:52:49;19.57;;;17.17;;
39256;SDS011;67272;48.066;11.038;2024-03-02T02:55:16;18.70;;;16.33;;
39256;SDS011;67272;48.066;11.038;2024-03-02T02:57:42;19.27;;;16.53;;
39256;SDS011;67272;48.066;11.038;2024-03-02T03:00:10;18.87;;;16.73;;
39256;SDS011;67272;48.066;11.038;2024-03-02T03:02:42;18.97;;;16.97;;
39256;SDS011;67272;48.066;11.038;2024-03-02T03:05:09;17.90;;;16.00;;
39256;SDS011;67272;48.066;11.038;2024-03-02T03:07:36;18.30;;;16.37;;
39256;SDS011;67272;48.066;11.038;2024-03-02T03:10:03;18.00;;;16.10;;
39256;SDS011;67272;48.066;11.038;2024-03-02T03:12:33;18.30;;;15.93;;
39256;SDS011;67272;48.066;11.038;2024-03-02T03:14:59;18.77;;;16.30;;
39256;SDS011;67272;48.066;11.038;2024-03-02T03:17:28;18.83;;;16.83;;
39256;SDS011;67272;48.066;11.038;2024-03-02T03:19:55;19.63;;;16.67;;
39256;SDS011;67272;48.066;11.038;2024-03-02T03:22:21;20.23;;;16.83;;
39256;SDS011;67272;48.066;11.038;2024-03-02T03:24:48;18.40;;;16.50;;
39256;SDS011;67272;48.066;11.038;2024-03-02T03:27:14;18.67;;;16.40;;
39256;SDS011;67272;48.066;11.038;2024-03-02T03:29:40;17.73;;;15.93;;
39256;SDS011;67272;48.066;11.038;2024-03-02T03:32:07;17.83;;;14.63;;
39256;SDS011;67272;48.066;11.038;2024-03-02T03:34:33;17.67;;;15.10;;
39256;SDS011;67272;48.066;11.038;2024-03-02T03:37:00;16.83;;;14.97;;
39256;SDS011;67272;48.066;11.038;2024-03-02T03:39:26;17.90;;;15.70;;
39256;SDS011;67272;48.066;11.038;2024-03-02T03:41:53;17.17;;;15.23;;
39256;SDS011;67272;48.066;11.038;2024-03-02T03:44:23;17.43;;;15.03;;
39256;SDS011;67272;48.066;11.038;2024-03-02T03:46:49;18.03;;;14.87;;
39256;SDS011;67272;48.066;11.038;2024-03-02T03:49:16;16.30;;;13.97;;
39256;SDS011;67272;48.066;11.038;2024-03-02T03:51:58;16.60;;;14.90;;
39256;SDS011;67272;48.066;11.038;2024-03-02T03:54:24;17.10;;;14.77;;
39256;SDS011;67272;48.066;11.038;2024-03-02T03:56:50;17.03;;;14.27;;
39256;SDS011;67272;48.066;11.038;2024-03-02T03:59:17;16.97;;;14.87;;
39256;SDS011;67272;48.066;11.038;2024-03-02T04:01:46;17.77;;;15.37;;
39256;SDS011;67272;48.066;11.038;2024-03-02T04:04:13;19.70;;;15.37;;
39256;SDS011;67272;48.066;11.038;2024-03-02T04:06:39;16.60;;;14.50;;
39256;SDS011;67272;48.066;11.038;2024-03-02T04:09:08;18.97;;;15.50;;
39256;SDS011;67272;48.066;11.038;2024-03-02T04:11:43;21.33;;;17.37;;
39256;SDS011;67272;48.066;11.038;2024-03-02T04:14:16;19.67;;;17.23;;
39256;SDS011;67272;48.066;11.038;2024-03-02T04:16:45;19.73;;;17.37;;
39256;SDS011;67272;48.066;11.038;2024-03-02T04:19:11;18.77;;;15.37;;
39256;SDS011;67272;48.066;11.038;2024-03-02T04:21:40;14.90;;;13.30;;
39256;SDS011;67272;48.066;11.038;2024-03-02T04:24:09;16.30;;;13.83;;
39256;SDS011;67272;48.066;11.038;2024-03-02T04:26:36;13.90;;;12.50;;
39256;SDS011;67272;48.066;11.038;2024-03-02T04:29:02;13.37;;;11.97;;
39256;SDS011;67272;48.066;11.038;2024-03-02T04:31:32;13.80;;;12.40;;
39256;SDS011;67272;48.066;11.038;2024-03-02T04:34:01;12.97;;;11.73;;
39256;SDS011;67272;48.066;11.038;2024-03-02T04:36:30;12.63;;;11.40;;
39256;SDS011;67272;48.066;11.038;2024-03-02T04:38:59;14.47;;;12.73;;
39256;SDS011;67272;48.066;11.038;2024-03-02T04:41:29;15.07;;;13.47;;
39256;SDS011;67272;48.066;11.038;2024-03-02T04:43:56;17.53;;;14.57;;
39256;SDS011;67272;48.066;11.038;2024-03-02T04:46:31;17.10;;;15.00;;
39256;SDS011;67272;48.066;11.038;2024-03-02T04:49:00;15.83;;;13.63;;
39256;SDS011;67272;48.066;11.038;2024-03-02T04:51:27;16.53;;;13.80;;
39256;SDS011;67272;48.066;11.038;2024-03-02T04:53:53;16.43;;;13.67;;
39256;SDS011;67272;48.066;11.038;2024-03-02T04:56:19;16.53;;;14.33;;
39256;SDS011;67272;48.066;11.038;2024-03-02T04:59:08;15.43;;;13.80;;
39256;SDS011;67272;48.066;11.038;2024-03-02T05:01:37;17.47;;;14.07;;
39256;SDS011;67272;48.066;11.038;2024-03-02T05:04:04;16.67;;;13.83;;
39256;SDS011;67272;48.066;11.038;2024-03-02T05:06:33;17.90;;;14.47;;
39256;SDS011;67272;48.066;11.038;2024-03-02T05:08:59;17.40;;;14.40;;
39256;SDS011;67272;48.066;11.038;2024-03-02T05:11:26;16.83;;;14.20;;
39256;SDS011;67272;48.066;11.038;2024-03-02T05:14:04;17.43;;;13.90;;
39256;SDS011;67272;48.066;11.038;2024-03-02T05:16:34;17.40;;;14.80;;
39256;SDS011;67272;48.066;11.038;2024-03-02T05:19:02;17.37;;;14.50;;
39256;SDS011;67272;48.066;11.038;2024-03-02T05:21:28;17.83;;;14.47;;
39256;SDS011;67272;48.066;11.038;2024-03-02T05:23:58;19.03;;;15.93;;
39256;SDS011;67272;48.066;11.038;2024-03-02T05:26:24;20.33;;;16.87;;
39256;SDS011;67272;48.066;11.038;2024-03-02T05:28:50;22.93;;;17.90;;
39256;SDS011;67272;48.066;11.038;2024-03-02T05:31:17;20.30;;;17.77;;
39256;SDS011;67272;48.066;11.038;2024-03-02T05:33:43;21.70;;;18.23;;
39256;SDS011;67272;48.066;11.038;2024-03-02T05:36:09;16.77;;;14.47;;
39256;SDS011;67272;48.066;11.038;2024-03-02T05:38:36;15.67;;;13.10;;
39256;SDS011;67272;48.066;11.038;2024-03-02T05:41:02;15.20;;;13.40;;
39256;SDS011;67272;48.066;11.038;2024-03-02T05:43:29;26.03;;;14.40;;
39256;SDS011;67272;48.066;11.038;2024-03-02T05:45:55;15.10;;;13.13;;
39256;SDS011;67272;48.066;11.038;2024-03-02T05:48:21;19.53;;;17.17;;
39256;SDS011;67272;48.066;11.038;2024-03-02T05:50:47;19.30;;;17.13;;
39256;SDS011;67272;48.066;11.038;2024-03-02T05:53:19;18.33;;;16.33;;
39256;SDS011;67272;48.066;11.038;2024-03-02T05:55:46;20.30;;;17.27;;
39256;SDS011;67272;48.066;11.038;2024-03-02T05:58:12;18.37;;;15.87;;
39256;SDS011;67272;48.066;11.038;2024-03-02T06:00:52;19.97;;;16.57;;
39256;SDS011;67272;48.066;11.038;2024-03-02T06:03:19;16.07;;;14.00;;
39256;SDS011;67272;48.066;11.038;2024-03-02T06:05:49;16.27;;;13.37;;
39256;SDS011;67272;48.066;11.038;2024-03-02T06:08:18;15.93;;;13.50;;
39256;SDS011;67272;48.066;11.038;2024-03-02T06:10:44;14.63;;;13.13;;
39256;SDS011;67272;48.066;11.038;2024-03-02T06:13:13;15.13;;;12.43;;
39256;SDS011;67272;48.066;11.038;2024-03-02T06:15:39;15.03;;;12.90;;
39256;SDS011;67272;48.066;11.038;2024-03-02T06:18:05;15.03;;;12.17;;
39256;SDS011;67272;48.066;11.038;2024-03-02T06:20:32;13.90;;;12.33;;
39256;SDS011;67272;48.066;11.038;2024-03-02T06:23:01;15.23;;;12.57;;
39256;SDS011;67272;48.066;11.038;2024-03-02T06:25:28;17.13;;;13.20;;
39256;SDS011;67272;48.066;11.038;2024-03-02T06:27:54;27.87;;;15.60;;
39256;SDS011;67272;48.066;11.038;2024-03-02T06:30:23;21.60;;;13.83;;
39256;SDS011;67272;48.066;11.038;2024-03-02T06:32:52;25.90;;;14.90;;
39256;SDS011;67272;48.066;11.038;2024-03-02T06:35:19;19.30;;;13.60;;
39256;SDS011;67272;48.066;11.038;2024-03-02T06:37:48;33.80;;;15.97;;
39256;SDS011;67272;48.066;11.038;2024-03-02T06:40:18;34.67;;;17.40;;
39256;SDS011;67272;48.066;11.038;2024-03-02T06:42:44;37.67;;;17.40;;
39256;SDS011;67272;48.066;11.038;2024-03-02T06:45:14;28.93;;;22.57;;
39256;SDS011;67272;48.066;11.038;2024-03-02T06:47:40;36.80;;;24.13;;
39256;SDS011;67272;48.066;11.038;2024-03-02T06:50:06;34.67;;;27.48;;
39256;SDS011;67272;48.066;11.038;2024-03-02T06:52:32;30.67;;;20.40;;
39256;SDS011;67272;48.066;11.038;2024-03-02T06:55:04;23.87;;;16.80;;
39256;SDS011;67272;48.066;11.038;2024-03-02T06:57:31;80.00;;;21.53;;
39256;SDS011;67272;48.066;11.038;2024-03-02T07:00:04;36.77;;;15.10;;
39256;SDS011;67272;48.066;11.038;2024-03-02T07:02:31;29.20;;;14.20;;
39256;SDS011;67272;48.066;11.038;2024-03-02T07:04:57;27.73;;;13.03;;
39256;SDS011;67272;48.066;11.038;2024-03-02T07:07:23;23.60;;;13.80;;
39256;SDS011;67272;48.066;11.038;2024-03-02T07:09:50;25.20;;;10.70;;
39256;SDS011;67272;48.066;11.038;2024-03-02T07:12:17;59.55;;;10.88;;
39256;SDS011;67272;48.066;11.038;2024-03-02T07:14:43;26.13;;;8.88;;
39256;SDS011;67272;48.066;11.038;2024-03-02T07:17:27;31.47;;;11.33;;
39256;SDS011;67272;48.066;11.038;2024-03-02T07:19:53;23.73;;;9.90;;
39256;SDS011;67272;48.066;11.038;2024-03-02T07:22:20;19.17;;;8.80;;
39256;SDS011;67272;48.066;11.038;2024-03-02T07:24:46;19.33;;;8.03;;
39256;SDS011;67272;48.066;11.038;2024-03-02T07:27:12;28.57;;;8.90;;
39256;SDS011;67272;48.066;11.038;2024-03-02T07:29:39;20.37;;;10.27;;
39256;SDS011;67272;48.066;11.038;2024-03-02T07:32:09;17.20;;;9.87;;
39256;SDS011;67272;48.066;11.038;2024-03-02T07:34:36;12.90;;;8.60;;
39256;SDS011;67272;48.066;11.038;2024-03-02T07:37:03;16.02;;;9.32;;
39256;SDS011;67272;48.066;11.038;2024-03-02T07:39:32;9.52;;;8.35;;
39256;SDS011;67272;48.066;11.038;2024-03-02T07:41:58;8.90;;;7.95;;
39256;SDS011;67272;48.066;11.038;2024-03-02T07:44:25;10.48;;;8.80;;
39256;SDS011;67272;48.066;11.038;2024-03-02T07:46:54;10.00;;;8.32;;
39256;SDS011;67272;48.066;11.038;2024-03-02T07:49:20;8.30;;;7.63;;
39256;SDS011;67272;48.066;11.038;2024-03-02T07:51:46;6.57;;;6.07;;
39256;SDS011;67272;48.066;11.038;2024-03-02T07:54:13;10.15;;;9.45;;
39256;SDS011;67272;48.066;11.038;2024-03-02T07:56:39;8.75;;;8.00;;
39256;SDS011;67272;48.066;11.038;2024-03-02T07:59:05;10.27;;;9.38;;
39256;SDS011;67272;48.066;11.038;2024-03-02T08:01:32;9.75;;;8.95;;
39256;SDS011;67272;48.066;11.038;2024-03-02T08:04:04;10.52;;;9.70;;
39256;SDS011;67272;48.066;11.038;2024-03-02T08:06:30;9.85;;;9.15;;
39256;SDS011;67272;48.066;11.038;2024-03-02T08:08:57;12.30;;;11.32;;
39256;SDS011;67272;48.066;11.038;2024-03-02T08:11:24;9.35;;;8.65;;
39256;SDS011;67272;48.066;11.038;2024-03-02T08:13:53;9.25;;;8.55;;
39256;SDS011;67272;48.066;11.038;2024-03-02T08:16:20;7.63;;;7.10;;
39256;SDS011;67272;48.066;11.038;2024-03-02T08:18:47;7.47;;;6.97;;
39256;SDS011;67272;48.066;11.038;2024-03-02T08:21:13;7.75;;;7.25;;
39256;SDS011;67272;48.066;11.038;2024-03-02T08:23:40;7.68;;;7.18;;
39256;SDS011;67272;48.066;11.038;2024-03-02T08:26:07;6.70;;;6.30;;
39256;SDS011;67272;48.066;11.038;2024-03-02T08:28:34;6.88;;;6.38;;
39256;SDS011;67272;48.066;11.038;2024-03-02T08:31:00;6.70;;;6.30;;
39256;SDS011;67272;48.066;11.038;2024-03-02T08:33:26;6.95;;;6.45;;
39256;SDS011;67272;48.066;11.038;2024-03-02T08:35:52;6.78;;;6.35;;
39256;SDS011;67272;48.066;11.038;2024-03-02T08:38:18;6.30;;;5.90;;
39256;SDS011;67272;48.066;11.038;2024-03-02T08:40:45;6.55;;;6.05;;
39256;SDS011;67272;48.066;11.038;2024-03-02T08:43:11;6.95;;;6.45;;
39256;SDS011;67272;48.066;11.038;2024-03-02T08:45:37;7.28;;;6.78;;
39256;SDS011;67272;48.066;11.038;2024-03-02T08:48:05;6.50;;;6.05;;
39256;SDS011;67272;48.066;11.038;2024-03-02T08:50:31;6.80;;;6.30;;
39256;SDS011;67272;48.066;11.038;2024-03-02T08:52:57;6.90;;;6.30;;
39256;SDS011;67272;48.066;11.038;2024-03-02T08:55:24;6.65;;;6.15;;
39256;SDS011;67272;48.066;11.038;2024-03-02T08:57:50;7.20;;;6.65;;
39256;SDS011;67272;48.066;11.038;2024-03-02T09:00:16;6.90;;;6.40;;
39256;SDS011;67272;48.066;11.038;2024-03-02T09:02:43;6.85;;;6.30;;
39256;SDS011;67272;48.066;11.038;2024-03-02T09:05:10;7.22;;;6.72;;
39256;SDS011;67272;48.066;11.038;2024-03-02T09:07:36;7.03;;;6.53;;
39256;SDS011;67272;48.066;11.038;2024-03-02T09:10:06;8.60;;;7.90;;
39256;SDS011;67272;48.066;11.038;2024-03-02T09:12:36;9.20;;;8.50;;
39256;SDS011;67272;48.066;11.038;2024-03-02T09:15:07;9.30;;;8.50;;
39256;SDS011;67272;48.066;11.038;2024-03-02T09:17:33;9.80;;;9.00;;
39256;SDS011;67272;48.066;11.038;2024-03-02T09:20:03;9.00;;;8.30;;
39256;SDS011;67272;48.066;11.038;2024-03-02T09:22:29;8.98;;;8.18;;
39256;SDS011;67272;48.066;11.038;2024-03-02T09:24:59;8.82;;;8.13;;
39256;SDS011;67272;48.066;11.038;2024-03-02T09:27:25;8.73;;;8.02;;
39256;SDS011;67272;48.066;11.038;2024-03-02T09:29:51;8.50;;;7.78;;
39256;SDS011;67272;48.066;11.038;2024-03-02T09:32:17;9.30;;;8.60;;
39256;SDS011;67272;48.066;11.038;2024-03-02T09:34:44;8.00;;;7.30;;
39256;SDS011;67272;48.066;11.038;2024-03-02T09:37:10;7.03;;;6.53;;
39256;SDS011;67272;48.066;11.038;2024-03-02T09:39:36;8.13;;;7.47;;
39256;SDS011;67272;48.066;11.038;2024-03-02T09:42:03;7.25;;;6.65;;
39256;SDS011;67272;48.066;11.038;2024-03-02T09:44:30;6.80;;;6.30;;
39256;SDS011;67272;48.066;11.038;2024-03-02T09:46:56;5.75;;;5.35;;
39256;SDS011;67272;48.066;11.038;2024-03-02T09:49:22;6.68;;;6.18;;
39256;SDS011;67272;48.066;11.038;2024-03-02T09:51:49;4.75;;;4.35;;
39256;SDS011;67272;48.066;11.038;2024-03-02T09:54:15;4.45;;;4.13;;
39256;SDS011;67272;48.066;11.038;2024-03-02T09:56:42;4.90;;;4.50;;
39256;SDS011;67272;48.066;11.038;2024-03-02T09:59:08;4.70;;;4.30;;
39256;SDS011;67272;48.066;11.038;2024-03-02T10:01:34;4.65;;;4.35;;
39256;SDS011;67272;48.066;11.038;2024-03-02T10:04:01;5.30;;;4.85;;
39256;SDS011;67272;48.066;11.038;2024-03-02T10:06:30;3.25;;;3.05;;
39256;SDS011;67272;48.066;11.038;2024-03-02T10:08:56;4.43;;;4.13;;
39256;SDS011;67272;48.066;11.038;2024-03-02T10:11:32;3.80;;;3.50;;
39256;SDS011;67272;48.066;11.038;2024-03-02T10:14:09;4.70;;;4.40;;
39256;SDS011;67272;48.066;11.038;2024-03-02T10:16:44;4.70;;;4.40;;
39256;SDS011;67272;48.066;11.038;2024-03-02T10:19:15;4.65;;;4.25;;
39256;SDS011;67272;48.066;11.038;2024-03-02T10:21:42;3.22;;;3.03;;
39256;SDS011;67272;48.066;11.038;2024-03-02T10:24:09;2.80;;;2.60;;
39256;SDS011;67272;48.066;11.038;2024-03-02T10:26:35;2.70;;;2.50;;
39256;SDS011;67272;48.066;11.038;2024-03-02T10:29:02;3.05;;;2.85;;
39256;SDS011;67272;48.066;11.038;2024-03-02T10:31:28;2.92;;;2.72;;
39256;SDS011;67272;48.066;11.038;2024-03-02T10:33:57;3.03;;;2.83;;
39256;SDS011;67272;48.066;11.038;2024-03-02T10:36:24;2.50;;;2.40;;
39256;SDS011;67272;48.066;11.038;2024-03-02T10:38:51;2.40;;;2.20;;
39256;SDS011;67272;48.066;11.038;2024-03-02T10:41:23;2.65;;;2.20;;
39256;SDS011;67272;48.066;11.038;2024-03-02T10:43:53;2.50;;;2.30;;
39256;SDS011;67272;48.066;11.038;2024-03-02T10:46:26;2.67;;;2.47;;
39256;SDS011;67272;48.066;11.038;2024-03-02T10:48:56;2.83;;;2.63;;
39256;SDS011;67272;48.066;11.038;2024-03-02T10:51:26;3.20;;;3.00;;
39256;SDS011;67272;48.066;11.038;2024-03-02T10:53:54;14.45;;;13.05;;
39256;SDS011;67272;48.066;11.038;2024-03-02T10:56:53;4.88;;;4.47;;
39256;SDS011;67272;48.066;11.038;2024-03-02T11:01:45;4.70;;;4.40;;
39256;SDS011;67272;48.066;11.038;2024-03-02T11:04:13;4.10;;;3.80;;
39256;SDS011;67272;48.066;11.038;2024-03-02T11:06:42;4.35;;;4.05;;
39256;SDS011;67272;48.066;11.038;2024-03-02T11:09:11;5.82;;;5.32;;
39256;SDS011;67272;48.066;11.038;2024-03-02T11:11:40;6.88;;;6.15;;
39256;SDS011;67272;48.066;11.038;2024-03-02T11:14:10;3.92;;;3.63;;
39256;SDS011;67272;48.066;11.038;2024-03-02T11:16:42;3.63;;;3.33;;
39256;SDS011;67272;48.066;11.038;2024-03-02T11:19:10;9.15;;;7.72;;
39256;SDS011;67272;48.066;11.038;2024-03-02T11:21:37;2.58;;;2.38;;
39256;SDS011;67272;48.066;11.038;2024-03-02T11:26:49;2.63;;;2.42;;
39256;SDS011;67272;48.066;11.038;2024-03-02T11:32:06;3.00;;;2.80;;
39256;SDS011;67272;48.066;11.038;2024-03-02T11:34:33;5.18;;;4.68;;
39256;SDS011;67272;48.066;11.038;2024-03-02T11:37:03;3.72;;;3.42;;
39256;SDS011;67272;48.066;11.038;2024-03-02T11:39:29;5.30;;;4.90;;
39256;SDS011;67272;48.066;11.038;2024-03-02T11:41:58;5.70;;;5.20;;
39256;SDS011;67272;48.066;11.038;2024-03-02T11:44:32;5.35;;;4.85;;
39256;SDS011;67272;48.066;11.038;2024-03-02T11:47:08;4.80;;;4.40;;
39256;SDS011;67272;48.066;11.038;2024-03-02T11:49:46;3.88;;;3.58;;
39256;SDS011;67272;48.066;11.038;2024-03-02T11:52:18;3.58;;;3.28;;
39256;SDS011;67272;48.066;11.038;2024-03-02T11:54:51;5.40;;;4.90;;
39256;SDS011;67272;48.066;11.038;2024-03-02T11:57:21;4.50;;;4.10;;
39256;SDS011;67272;48.066;11.038;2024-03-02T11:59:51;4.50;;;4.10;;
39256;SDS011;67272;48.066;11.038;2024-03-02T12:02:21;4.95;;;4.55;;
39256;SDS011;67272;48.066;11.038;2024-03-02T12:04:47;5.03;;;4.57;;
39256;SDS011;67272;48.066;11.038;2024-03-02T12:07:20;5.30;;;4.90;;
39256;SDS011;67272;48.066;11.038;2024-03-02T12:09:48;6.13;;;5.63;;
39256;SDS011;67272;48.066;11.038;2024-03-02T12:12:18;6.13;;;5.60;;
39256;SDS011;67272;48.066;11.038;2024-03-02T12:14:51;5.97;;;5.38;;
39256;SDS011;67272;48.066;11.038;2024-03-02T12:17:18;5.82;;;5.22;;
39256;SDS011;67272;48.066;11.038;2024-03-02T12:19:53;7.68;;;6.90;;
39256;SDS011;67272;48.066;11.038;2024-03-02T12:22:20;7.55;;;6.82;;
39256;SDS011;67272;48.066;11.038;2024-03-02T12:24:47;7.40;;;6.70;;
39256;SDS011;67272;48.066;11.038;2024-03-02T12:27:14;8.65;;;7.78;;
39256;SDS011;67272;48.066;11.038;2024-03-02T12:29:44;9.88;;;8.98;;
39256;SDS011;67272;48.066;11.038;2024-03-02T12:32:10;9.35;;;8.45;;
39256;SDS011;67272;48.066;11.038;2024-03-02T12:34:38;12.40;;;10.13;;
39256;SDS011;67272;48.066;11.038;2024-03-02T12:37:07;10.93;;;9.18;;
39256;SDS011;67272;48.066;11.038;2024-03-02T12:39:44;10.75;;;9.65;;
39256;SDS011;67272;48.066;11.038;2024-03-02T12:42:12;8.38;;;7.60;;
39256;SDS011;67272;48.066;11.038;2024-03-02T12:44:41;8.80;;;8.00;;
39256;SDS011;67272;48.066;11.038;2024-03-02T12:47:07;7.35;;;6.57;;
39256;SDS011;67272;48.066;11.038;2024-03-02T12:49:40;9.85;;;6.75;;
39256;SDS011;67272;48.066;11.038;2024-03-02T12:52:06;4.38;;;3.97;;
39256;SDS011;67272;48.066;11.038;2024-03-02T12:54:32;3.38;;;3.10;;
39256;SDS011;67272;48.066;11.038;2024-03-02T12:57:00;6.90;;;5.78;;
39256;SDS011;67272;48.066;11.038;2024-03-02T12:59:28;3.47;;;3.08;;
39256;SDS011;67272;48.066;11.038;2024-03-02T13:01:57;3.10;;;2.80;;
39256;SDS011;67272;48.066;11.038;2024-03-02T13:04:24;3.95;;;2.58;;
39256;SDS011;67272;48.066;11.038;2024-03-02T13:06:51;3.92;;;2.90;;
39256;SDS011;67272;48.066;11.038;2024-03-02T13:09:18;2.92;;;2.40;;
39256;SDS011;67272;48.066;11.038;2024-03-02T13:11:44;3.33;;;2.75;;
39256;SDS011;67272;48.066;11.038;2024-03-02T13:14:16;3.08;;;2.45;;
39256;SDS011;67272;48.066;11.038;2024-03-02T13:16:44;2.25;;;2.03;;
39256;SDS011;67272;48.066;11.038;2024-03-02T13:19:12;2.13;;;1.90;;
39256;SDS011;67272;48.066;11.038;2024-03-02T13:21:38;2.92;;;2.30;;
39256;SDS011;67272;48.066;11.038;2024-03-02T13:24:05;2.75;;;2.10;;
39256;SDS011;67272;48.066;11.038;2024-03-02T13:26:31;2.50;;;2.22;;
39256;SDS011;67272;48.066;11.038;2024-03-02T13:28:57;3.28;;;2.97;;
39256;SDS011;67272;48.066;11.038;2024-03-02T13:31:23;3.40;;;3.10;;
39256;SDS011;67272;48.066;11.038;2024-03-02T13:33:50;3.45;;;3.15;;
39256;SDS011;67272;48.066;11.038;2024-03-02T13:36:16;3.65;;;2.80;;
39256;SDS011;67272;48.066;11.038;2024-03-02T13:38:42;2.83;;;2.63;;
39256;SDS011;67272;48.066;11.038;2024-03-02T13:41:11;4.60;;;4.20;;
39256;SDS011;67272;48.066;11.038;2024-03-02T13:43:37;5.95;;;4.53;;
39256;SDS011;67272;48.066;11.038;2024-03-02T13:46:04;6.93;;;5.40;;
39256;SDS011;67272;48.066;11.038;2024-03-02T13:48:31;5.25;;;3.60;;
39256;SDS011;67272;48.066;11.038;2024-03-02T13:50:57;6.45;;;4.22;;
39256;SDS011;67272;48.066;11.038;2024-03-02T13:53:23;4.28;;;3.80;;
39256;SDS011;67272;48.066;11.038;2024-03-02T13:55:49;4.80;;;4.15;;
39256;SDS011;67272;48.066;11.038;2024-03-02T13:58:15;4.43;;;3.92;;
39256;SDS011;67272;48.066;11.038;2024-03-02T14:00:45;5.00;;;4.53;;
39256;SDS011;67272;48.066;11.038;2024-03-02T14:03:12;6.43;;;5.10;;
39256;SDS011;67272;48.066;11.038;2024-03-02T14:05:38;6.50;;;5.72;;
39256;SDS011;67272;48.066;11.038;2024-03-02T14:08:04;7.40;;;5.50;;
39256;SDS011;67272;48.066;11.038;2024-03-02T14:10:30;8.02;;;6.65;;
39256;SDS011;67272;48.066;11.038;2024-03-02T14:12:56;7.70;;;6.90;;
39256;SDS011;67272;48.066;11.038;2024-03-02T14:15:22;8.25;;;6.75;;
39256;SDS011;67272;48.066;11.038;2024-03-02T14:17:49;8.05;;;6.70;;
39256;SDS011;67272;48.066;11.038;2024-03-02T14:20:16;7.65;;;6.63;;
39256;SDS011;67272;48.066;11.038;2024-03-02T14:22:52;10.25;;;8.32;;
39256;SDS011;67272;48.066;11.038;2024-03-02T14:25:25;9.27;;;7.90;;
39256;SDS011;67272;48.066;11.038;2024-03-02T14:27:51;10.35;;;7.95;;
39256;SDS011;67272;48.066;11.038;2024-03-02T14:30:18;11.40;;;8.75;;
39256;SDS011;67272;48.066;11.038;2024-03-02T14:32:47;8.82;;;7.40;;
39256;SDS011;67272;48.066;11.038;2024-03-02T14:35:16;10.27;;;8.93;;